Airfield :
LOGIN :

Register | Disclaimer

   EN    FR    IT 

 










Legend :    VFR   Marginal VFR   IFR   Intensive IFR   Very Intensive IFR
Visi :
Ceiling :
>= 8 km
>= 3000ft
5 to 8 km
1000 to 3000 ft
1500m to 5 km
500 to 1000 ft
800 to 1500m
200 to 500 ft
< 800m
< 200 ft
Symbols :   Thunderstorms  Fog  Heavy snow  Heavy precipitations  Wind > 20 kt
SIGMETs :     Misc.  Thunderstorms  Icing  Turbulence  Mountain Waves  Volcanic Ashes






- Airport Elevation : 117 ft
- IATA code : NWI


EGSH - Norwich

CURRENT METAR :
  • 231750Z 24012KT 200V270 9999 FEW031 SCT038 15/09 Q1013 NOSIG

EXPIRED METARs :
  • 231720Z 24011KT 200V270 9999 FEW029 SCT034 BKN040 15/09 Q1013 NOSIG
  • 231650Z 24013KT 200V260 9999 SCT028 BKN040 15/10 Q1013
  • 231620Z 25012KT 230V290 9999 SCT028 BKN040 15/09 Q1013
  • 231550Z 25016KT 9999 SCT027 BKN034 15/09 Q1013
  • 231520Z 24014KT 200V270 9999 FEW027 BKN032 15/09 Q1013
  • 231450Z 23012KT 190V270 9999 SCT025 BKN031 15/09 Q1013
  • 231420Z 24016KT 210V270 9999 BKN024 15/09 Q1012
  • 231350Z 24012KT 200V270 9999 BKN024 15/09 Q1012
  • 231320Z 24015KT 210V270 9999 BKN025 15/09 Q1012

TAF TAF EGSH
Valid from the 23 at 18:00 until the 24 at 03:00 UTC


231701Z 2318/2403 23009KT 9999 SCT030
ATIS : +44 1603 420 640



MET'MAP, your aeronautical weather chart ! - Copyright ORBIFLY December 2007 - Disclaimer

ORBIFLY MET'MAP TEAM :

Programming & Development : Alexandra Zaïnal
Original concept : Baudouin d'Aumeries
Technical & hardware support : Manuel Goepfert
Assistance : Marc-Olivier Méhu




SOURCES & CREDITS :

   NOAA